Main page
METAR-TAF:

METAR-TAF

Airports :

Guasdualito Airport

Guasdualito, Venezuela

latitude: 07-14N, longitude: 070-48W, elevation: 130 m

Current weather observation

The report was made 3 hours and 14 minutes ago, at 17:02 UTC
Wind 6 kt from the North/Northeast
Temperature 31°C
Humidity 63%
Pressure 1013 hPa

METAR: SVGD 241702Z AUTO 03006KT NCD 31/23 Q1013

Time: 16:16 (20:16 UTC)


TAF: missing

Weather observations and forecasts of more than 4000 airports (METAR and TAF reports).

The available stations are represented by yellow and red dots on the map.

Hover mouse over dot to see the name of the station.

Then click to see weather observations and forecasts.

To change the map : click on the green buttons with a black cross to zoom in, on the green button with a dash to zoom out, or on the green arrows for adjacent maps.


METAR-TAF: